sensor_id;sensor_type;location;lat;lon;timestamp;pressure;altitude;pressure_sealevel;temperature;humidity
25156;BME280;21913;52.456;13.634;2023-04-16T00:04:17;100544.91;;;12.31;66.23
25156;BME280;21913;52.456;13.634;2023-04-16T00:09:19;100538.84;;;12.30;66.25
25156;BME280;21913;52.456;13.634;2023-04-16T00:14:21;100547.50;;;12.31;66.33
25156;BME280;21913;52.456;13.634;2023-04-16T00:19:22;100547.50;;;12.31;66.21
25156;BME280;21913;52.456;13.634;2023-04-16T00:24:24;100542.31;;;12.31;66.20
25156;BME280;21913;52.456;13.634;2023-04-16T00:29:25;100540.59;;;12.30;66.32
25156;BME280;21913;52.456;13.634;2023-04-16T00:34:27;100545.78;;;12.30;66.19
25156;BME280;21913;52.456;13.634;2023-04-16T00:39:28;100545.78;;;12.30;66.25
25156;BME280;21913;52.456;13.634;2023-04-16T00:44:30;100549.25;;;12.30;66.20
25156;BME280;21913;52.456;13.634;2023-04-16T00:49:32;100554.44;;;12.30;66.35
25156;BME280;21913;52.456;13.634;2023-04-16T00:54:34;100550.09;;;12.31;66.29
25156;BME280;21913;52.456;13.634;2023-04-16T00:59:36;100550.97;;;12.30;66.23
25156;BME280;21913;52.456;13.634;2023-04-16T01:04:37;100559.63;;;12.30;66.32
25156;BME280;21913;52.456;13.634;2023-04-16T01:09:39;100561.34;;;12.30;66.25
25156;BME280;21913;52.456;13.634;2023-04-16T01:14:41;100561.34;;;12.30;66.23
25156;BME280;21913;52.456;13.634;2023-04-16T01:19:43;100562.22;;;12.30;66.44
25156;BME280;21913;52.456;13.634;2023-04-16T01:24:44;100549.25;;;12.29;66.26
25156;BME280;21913;52.456;13.634;2023-04-16T01:29:46;100566.53;;;12.30;66.34
25156;BME280;21913;52.456;13.634;2023-04-16T01:34:52;100568.25;;;12.31;66.28
25156;BME280;21913;52.456;13.634;2023-04-16T01:39:54;100576.91;;;12.30;66.37
25156;BME280;21913;52.456;13.634;2023-04-16T01:44:56;100569.13;;;12.30;66.39
25156;BME280;21913;52.456;13.634;2023-04-16T01:49:58;100571.72;;;12.30;66.32
25156;BME280;21913;52.456;13.634;2023-04-16T01:55:00;100570.84;;;12.31;66.39
25156;BME280;21913;52.456;13.634;2023-04-16T02:00:02;100579.50;;;12.30;66.38
25156;BME280;21913;52.456;13.634;2023-04-16T02:05:06;100585.56;;;12.30;66.35
25156;BME280;21913;52.456;13.634;2023-04-16T02:10:08;100571.72;;;12.30;66.33
25156;BME280;21913;52.456;13.634;2023-04-16T02:15:12;100569.13;;;12.30;66.48
25156;BME280;21913;52.456;13.634;2023-04-16T02:20:14;100570.00;;;12.29;66.42
25156;BME280;21913;52.456;13.634;2023-04-16T02:25:26;100573.47;;;12.29;66.49
25156;BME280;21913;52.456;13.634;2023-04-16T02:30:30;100575.19;;;12.29;66.54
25156;BME280;21913;52.456;13.634;2023-04-16T02:35:33;100575.19;;;12.29;66.49
25156;BME280;21913;52.456;13.634;2023-04-16T02:40:34;100576.91;;;12.30;66.53
25156;BME280;21913;52.456;13.634;2023-04-16T02:45:36;100578.66;;;12.29;66.48
25156;BME280;21913;52.456;13.634;2023-04-16T02:50:38;100587.28;;;12.30;66.48
25156;BME280;21913;52.456;13.634;2023-04-16T02:55:39;100588.16;;;12.29;66.55
25156;BME280;21913;52.456;13.634;2023-04-16T03:00:41;100586.44;;;12.29;66.44
25156;BME280;21913;52.456;13.634;2023-04-16T03:05:42;100585.56;;;12.29;66.58
25156;BME280;21913;52.456;13.634;2023-04-16T03:10:44;100586.44;;;12.29;66.47
25156;BME280;21913;52.456;13.634;2023-04-16T03:15:49;100593.34;;;12.29;66.45
25156;BME280;21913;52.456;13.634;2023-04-16T03:20:51;100598.53;;;12.29;66.73
25156;BME280;21913;52.456;13.634;2023-04-16T03:25:53;100598.53;;;12.29;66.53
25156;BME280;21913;52.456;13.634;2023-04-16T03:30:54;100600.25;;;12.28;66.47
25156;BME280;21913;52.456;13.634;2023-04-16T03:35:57;100596.81;;;12.29;66.63
25156;BME280;21913;52.456;13.634;2023-04-16T03:41:01;100595.06;;;12.28;66.60
25156;BME280;21913;52.456;13.634;2023-04-16T03:46:06;100598.53;;;12.29;66.51
25156;BME280;21913;52.456;13.634;2023-04-16T03:51:08;100600.25;;;12.28;66.49
25156;BME280;21913;52.456;13.634;2023-04-16T03:56:10;100602.88;;;12.30;66.72
25156;BME280;21913;52.456;13.634;2023-04-16T04:01:11;100611.50;;;12.29;66.55
25156;BME280;21913;52.456;13.634;2023-04-16T04:06:13;100604.56;;;12.28;66.60
25156;BME280;21913;52.456;13.634;2023-04-16T04:11:15;100614.94;;;12.28;66.58
25156;BME280;21913;52.456;13.634;2023-04-16T04:16:17;100616.69;;;12.29;66.57
25156;BME280;21913;52.456;13.634;2023-04-16T04:21:19;100614.94;;;12.28;66.63
25156;BME280;21913;52.456;13.634;2023-04-16T04:26:21;100614.13;;;12.29;66.64
25156;BME280;21913;52.456;13.634;2023-04-16T04:31:23;100621.00;;;12.28;66.62
25156;BME280;21913;52.456;13.634;2023-04-16T04:36:24;100630.50;;;12.28;66.54
25156;BME280;21913;52.456;13.634;2023-04-16T04:41:27;100633.13;;;12.29;66.62
25156;BME280;21913;52.456;13.634;2023-04-16T04:46:29;100634.88;;;12.29;66.66
25156;BME280;21913;52.456;13.634;2023-04-16T04:51:31;100646.09;;;12.28;66.67
25156;BME280;21913;52.456;13.634;2023-04-16T04:56:32;100643.47;;;12.28;66.62
25156;BME280;21913;52.456;13.634;2023-04-16T05:01:34;100654.72;;;12.28;66.58
25156;BME280;21913;52.456;13.634;2023-04-16T05:06:36;100652.13;;;12.28;66.70
25156;BME280;21913;52.456;13.634;2023-04-16T05:11:37;100669.44;;;12.28;66.57
25156;BME280;21913;52.456;13.634;2023-04-16T05:16:39;100664.25;;;12.28;66.66
25156;BME280;21913;52.456;13.634;2023-04-16T05:21:40;100666.84;;;12.28;66.74
25156;BME280;21913;52.456;13.634;2023-04-16T05:26:42;100682.41;;;12.28;66.75
25156;BME280;21913;52.456;13.634;2023-04-16T05:31:44;100688.47;;;12.28;66.70
25156;BME280;21913;52.456;13.634;2023-04-16T05:36:45;100692.78;;;12.28;66.77
25156;BME280;21913;52.456;13.634;2023-04-16T05:41:47;100698.84;;;12.28;66.66
25156;BME280;21913;52.456;13.634;2023-04-16T05:46:49;100703.16;;;12.28;66.64
25156;BME280;21913;52.456;13.634;2023-04-16T05:51:50;100710.94;;;12.28;66.75
25156;BME280;21913;52.456;13.634;2023-04-16T05:56:52;100708.34;;;12.28;66.71
25156;BME280;21913;52.456;13.634;2023-04-16T06:01:53;100714.41;;;12.28;66.68
25156;BME280;21913;52.456;13.634;2023-04-16T06:06:55;100720.47;;;12.27;66.68
25156;BME280;21913;52.456;13.634;2023-04-16T06:11:56;100716.13;;;12.28;66.63
25156;BME280;21913;52.456;13.634;2023-04-16T06:16:58;100714.41;;;12.28;66.78
25156;BME280;21913;52.456;13.634;2023-04-16T06:22:00;100721.31;;;12.28;66.69
25156;BME280;21913;52.456;13.634;2023-04-16T06:27:01;100745.56;;;12.30;66.79
25156;BME280;21913;52.456;13.634;2023-04-16T06:32:03;100738.63;;;12.27;66.70
25156;BME280;21913;52.456;13.634;2023-04-16T06:37:05;100740.34;;;12.27;66.70
25156;BME280;21913;52.456;13.634;2023-04-16T06:42:07;100749.00;;;12.27;66.66
25156;BME280;21913;52.456;13.634;2023-04-16T06:47:08;100751.59;;;12.27;66.72
25156;BME280;21913;52.456;13.634;2023-04-16T06:52:10;100755.06;;;12.28;66.79
25156;BME280;21913;52.456;13.634;2023-04-16T06:57:12;100756.78;;;12.27;66.78
25156;BME280;21913;52.456;13.634;2023-04-16T07:02:14;100758.53;;;12.27;66.81
25156;BME280;21913;52.456;13.634;2023-04-16T07:07:15;100753.31;;;12.27;66.86
25156;BME280;21913;52.456;13.634;2023-04-16T07:12:17;100771.50;;;12.28;66.82
25156;BME280;21913;52.456;13.634;2023-04-16T07:17:18;100764.56;;;12.27;66.88
25156;BME280;21913;52.456;13.634;2023-04-16T07:22:20;100773.22;;;12.28;66.81
25156;BME280;21913;52.456;13.634;2023-04-16T07:27:22;100783.63;;;12.29;66.91
25156;BME280;21913;52.456;13.634;2023-04-16T07:32:24;100783.59;;;12.28;66.88
25156;BME280;21913;52.456;13.634;2023-04-16T07:37:25;100781.88;;;12.28;66.87
25156;BME280;21913;52.456;13.634;2023-04-16T07:42:27;100788.78;;;12.28;66.92
25156;BME280;21913;52.456;13.634;2023-04-16T07:47:28;100791.38;;;12.28;66.88
25156;BME280;21913;52.456;13.634;2023-04-16T07:52:30;100800.94;;;12.29;66.91
25156;BME280;21913;52.456;13.634;2023-04-16T07:57:32;100799.16;;;12.28;66.92
25156;BME280;21913;52.456;13.634;2023-04-16T08:02:33;100806.94;;;12.28;66.82
25156;BME280;21913;52.456;13.634;2023-04-16T08:07:35;100813.00;;;12.28;66.98
25156;BME280;21913;52.456;13.634;2023-04-16T08:12:36;100814.72;;;12.26;66.96
25156;BME280;21913;52.456;13.634;2023-04-16T08:17:39;100829.44;;;12.26;67.00
25156;BME280;21913;52.456;13.634;2023-04-16T08:22:41;100830.31;;;12.26;66.99
25156;BME280;21913;52.456;13.634;2023-04-16T08:27:42;100841.53;;;12.27;66.91
25156;BME280;21913;52.456;13.634;2023-04-16T08:32:44;100850.19;;;12.27;66.74
25156;BME280;21913;52.456;13.634;2023-04-16T08:37:46;100850.19;;;12.27;66.89
25156;BME280;21913;52.456;13.634;2023-04-16T08:42:52;100853.66;;;12.28;66.90
25156;BME280;21913;52.456;13.634;2023-04-16T08:47:54;100855.38;;;12.27;66.79
25156;BME280;21913;52.456;13.634;2023-04-16T08:52:58;100864.03;;;12.28;66.79
25156;BME280;21913;52.456;13.634;2023-04-16T08:58:00;100866.63;;;12.28;66.79
25156;BME280;21913;52.456;13.634;2023-04-16T09:03:04;100870.97;;;12.29;66.81
25156;BME280;21913;52.456;13.634;2023-04-16T09:08:07;100875.28;;;12.28;66.83
25156;BME280;21913;52.456;13.634;2023-04-16T09:13:09;100877.88;;;12.28;66.99
25156;BME280;21913;52.456;13.634;2023-04-16T09:18:11;100876.19;;;12.29;66.60
25156;BME280;21913;52.456;13.634;2023-04-16T09:23:12;100869.22;;;12.28;66.90
25156;BME280;21913;52.456;13.634;2023-04-16T09:28:47;100875.28;;;12.28;66.82
25156;BME280;21913;52.456;13.634;2023-04-16T09:34:07;100880.50;;;12.30;66.81
25156;BME280;21913;52.456;13.634;2023-04-16T09:39:17;100888.25;;;12.28;67.03
25156;BME280;21913;52.456;13.634;2023-04-16T09:44:19;100887.38;;;12.25;66.96
25156;BME280;21913;52.456;13.634;2023-04-16T09:49:20;100893.44;;;12.27;66.90
25156;BME280;21913;52.456;13.634;2023-04-16T09:54:22;100899.50;;;12.27;66.97
25156;BME280;21913;52.456;13.634;2023-04-16T09:59:24;100898.63;;;12.27;66.86
25156;BME280;21913;52.456;13.634;2023-04-16T10:04:26;100899.50;;;12.27;66.82
25156;BME280;21913;52.456;13.634;2023-04-16T10:09:37;100903.81;;;12.28;66.97
25156;BME280;21913;52.456;13.634;2023-04-16T10:14:39;100916.78;;;12.28;67.06
25156;BME280;21913;52.456;13.634;2023-04-16T10:19:41;100908.16;;;12.28;66.92
25156;BME280;21913;52.456;13.634;2023-04-16T10:24:44;100912.47;;;12.26;67.19
25156;BME280;21913;52.456;13.634;2023-04-16T10:29:47;100912.47;;;12.26;67.07
25156;BME280;21913;52.456;13.634;2023-04-16T10:34:49;100913.34;;;12.26;67.11
25156;BME280;21913;52.456;13.634;2023-04-16T10:39:51;100911.59;;;12.27;67.13
25156;BME280;21913;52.456;13.634;2023-04-16T10:44:52;100919.38;;;12.27;66.97
25156;BME280;21913;52.456;13.634;2023-04-16T10:49:54;100918.53;;;12.28;67.01
25156;BME280;21913;52.456;13.634;2023-04-16T10:54:58;100918.56;;;12.29;67.11
25156;BME280;21913;52.456;13.634;2023-04-16T10:59:59;100915.09;;;12.29;67.12
25156;BME280;21913;52.456;13.634;2023-04-16T11:05:01;100909.91;;;12.29;67.25
25156;BME280;21913;52.456;13.634;2023-04-16T11:10:06;100898.63;;;12.28;67.10
25156;BME280;21913;52.456;13.634;2023-04-16T11:15:13;100908.13;;;12.26;67.10
25156;BME280;21913;52.456;13.634;2023-04-16T11:25:25;100908.19;;;12.29;67.15
25156;BME280;21913;52.456;13.634;2023-04-16T11:30:34;100914.19;;;12.28;67.04
25156;BME280;21913;52.456;13.634;2023-04-16T11:35:37;100904.72;;;12.29;67.14
25156;BME280;21913;52.456;13.634;2023-04-16T11:40:41;100906.41;;;12.28;67.10
25156;BME280;21913;52.456;13.634;2023-04-16T11:45:56;100915.09;;;12.29;67.28
25156;BME280;21913;52.456;13.634;2023-04-16T11:50:58;100923.72;;;12.28;67.13
25156;BME280;21913;52.456;13.634;2023-04-16T11:55:59;100914.22;;;12.30;67.16
25156;BME280;21913;52.456;13.634;2023-04-16T12:01:01;100918.56;;;12.31;67.15
25156;BME280;21913;52.456;13.634;2023-04-16T12:06:07;100918.56;;;12.31;67.08
25156;BME280;21913;52.456;13.634;2023-04-16T12:11:08;100918.56;;;12.31;67.02
25156;BME280;21913;52.456;13.634;2023-04-16T12:16:18;100927.22;;;12.31;67.14
25156;BME280;21913;52.456;13.634;2023-04-16T12:21:19;100930.66;;;12.30;67.11
25156;BME280;21913;52.456;13.634;2023-04-16T12:26:21;100938.44;;;12.30;67.04
25156;BME280;21913;52.456;13.634;2023-04-16T12:31:36;100935.00;;;12.31;67.19
25156;BME280;21913;52.456;13.634;2023-04-16T12:36:37;100937.59;;;12.31;67.10
25156;BME280;21913;52.456;13.634;2023-04-16T12:41:41;100941.03;;;12.30;67.13
25156;BME280;21913;52.456;13.634;2023-04-16T12:46:43;100949.69;;;12.31;67.12
25156;BME280;21913;52.456;13.634;2023-04-16T12:51:45;100947.97;;;12.31;67.05
25156;BME280;21913;52.456;13.634;2023-04-16T12:56:47;100939.31;;;12.31;67.15
25156;BME280;21913;52.456;13.634;2023-04-16T13:01:48;100946.22;;;12.30;67.08
25156;BME280;21913;52.456;13.634;2023-04-16T13:06:50;100941.03;;;12.30;67.10
25156;BME280;21913;52.456;13.634;2023-04-16T13:11:51;100945.38;;;12.31;67.18
25156;BME280;21913;52.456;13.634;2023-04-16T13:16:53;100947.97;;;12.31;67.14
25156;BME280;21913;52.456;13.634;2023-04-16T13:21:54;100940.19;;;12.31;67.08
25156;BME280;21913;52.456;13.634;2023-04-16T13:26:56;100947.97;;;12.31;67.06
25156;BME280;21913;52.456;13.634;2023-04-16T13:31:57;100942.78;;;12.31;67.14
25156;BME280;21913;52.456;13.634;2023-04-16T13:36:59;100944.50;;;12.31;67.19
25156;BME280;21913;52.456;13.634;2023-04-16T13:42:00;100941.06;;;12.32;67.09
25156;BME280;21913;52.456;13.634;2023-04-16T13:47:02;100937.59;;;12.31;67.18
25156;BME280;21913;52.456;13.634;2023-04-16T13:52:03;100946.25;;;12.32;67.27
25156;BME280;21913;52.456;13.634;2023-04-16T13:57:05;100938.44;;;12.32;67.17
25156;BME280;21913;52.456;13.634;2023-04-16T14:02:07;100943.63;;;12.32;67.25
25156;BME280;21913;52.456;13.634;2023-04-16T14:07:09;100937.59;;;12.31;67.19
25156;BME280;21913;52.456;13.634;2023-04-16T14:12:11;100943.63;;;12.32;67.14
25156;BME280;21913;52.456;13.634;2023-04-16T14:17:12;100937.59;;;12.31;67.17
25156;BME280;21913;52.456;13.634;2023-04-16T14:22:14;100941.06;;;12.32;67.15
25156;BME280;21913;52.456;13.634;2023-04-16T14:27:16;100941.06;;;12.32;67.28
25156;BME280;21913;52.456;13.634;2023-04-16T14:32:17;100937.59;;;12.31;67.29
25156;BME280;21913;52.456;13.634;2023-04-16T14:37:19;100936.72;;;12.31;67.17
25156;BME280;21913;52.456;13.634;2023-04-16T14:42:20;100935.00;;;12.33;67.25
25156;BME280;21913;52.456;13.634;2023-04-16T14:47:22;100941.91;;;12.32;67.29
25156;BME280;21913;52.456;13.634;2023-04-16T14:52:24;100939.31;;;12.32;67.13
25156;BME280;21913;52.456;13.634;2023-04-16T14:57:25;100940.19;;;12.33;67.38
25156;BME280;21913;52.456;13.634;2023-04-16T15:02:27;100938.44;;;12.32;67.23
25156;BME280;21913;52.456;13.634;2023-04-16T15:07:28;100938.44;;;12.32;67.32
25156;BME280;21913;52.456;13.634;2023-04-16T15:12:30;100940.19;;;12.33;67.12
25156;BME280;21913;52.456;13.634;2023-04-16T15:17:31;100933.25;;;12.32;67.11
25156;BME280;21913;52.456;13.634;2023-04-16T15:22:33;100938.44;;;12.32;67.19
25156;BME280;21913;52.456;13.634;2023-04-16T15:27:34;100938.44;;;12.32;67.22
25156;BME280;21913;52.456;13.634;2023-04-16T15:32:36;100933.25;;;12.32;67.30
25156;BME280;21913;52.456;13.634;2023-04-16T15:37:38;100940.19;;;12.33;67.11
25156;BME280;21913;52.456;13.634;2023-04-16T15:42:39;100942.78;;;12.33;67.42
25156;BME280;21913;52.456;13.634;2023-04-16T15:47:41;100942.78;;;12.33;67.26
25156;BME280;21913;52.456;13.634;2023-04-16T15:52:42;100941.91;;;12.32;67.20
25156;BME280;21913;52.456;13.634;2023-04-16T15:57:44;100950.56;;;12.33;67.35
25156;BME280;21913;52.456;13.634;2023-04-16T16:02:45;100948.84;;;12.32;67.28
25156;BME280;21913;52.456;13.634;2023-04-16T16:07:47;100946.25;;;12.33;67.29
25156;BME280;21913;52.456;13.634;2023-04-16T16:12:49;100947.09;;;12.32;67.16
25156;BME280;21913;52.456;13.634;2023-04-16T16:17:50;100960.06;;;12.32;67.38
25156;BME280;21913;52.456;13.634;2023-04-16T16:22:52;100956.63;;;12.32;67.26
25156;BME280;21913;52.456;13.634;2023-04-16T16:27:53;100956.63;;;12.33;67.36
25156;BME280;21913;52.456;13.634;2023-04-16T16:32:55;100950.56;;;12.33;67.36
25156;BME280;21913;52.456;13.634;2023-04-16T16:37:56;100954.03;;;12.33;67.31
25156;BME280;21913;52.456;13.634;2023-04-16T16:42:58;100956.63;;;12.33;67.28
25156;BME280;21913;52.456;13.634;2023-04-16T16:47:59;100954.88;;;12.32;67.44
25156;BME280;21913;52.456;13.634;2023-04-16T16:53:01;100956.63;;;12.33;67.39
25156;BME280;21913;52.456;13.634;2023-04-16T16:58:03;100960.94;;;12.33;67.10
25156;BME280;21913;52.456;13.634;2023-04-16T17:03:04;100961.81;;;12.33;67.28
25156;BME280;21913;52.456;13.634;2023-04-16T17:08:06;100965.25;;;12.32;67.41
25156;BME280;21913;52.456;13.634;2023-04-16T17:13:07;100968.72;;;12.33;67.44
25156;BME280;21913;52.456;13.634;2023-04-16T17:18:09;100959.22;;;12.33;67.40
25156;BME280;21913;52.456;13.634;2023-04-16T17:23:10;100960.94;;;12.33;67.49
25156;BME280;21913;52.456;13.634;2023-04-16T17:28:12;100965.28;;;12.34;67.50
25156;BME280;21913;52.456;13.634;2023-04-16T17:33:13;100961.81;;;12.33;67.39
25156;BME280;21913;52.456;13.634;2023-04-16T17:38:15;100966.13;;;12.33;67.26
25156;BME280;21913;52.456;13.634;2023-04-16T17:43:16;100969.59;;;12.33;67.40
25156;BME280;21913;52.456;13.634;2023-04-16T17:48:18;100977.38;;;12.33;67.43
25156;BME280;21913;52.456;13.634;2023-04-16T17:53:19;100979.97;;;12.33;67.34
25156;BME280;21913;52.456;13.634;2023-04-16T17:58:21;100987.75;;;12.33;67.34
25156;BME280;21913;52.456;13.634;2023-04-16T18:03:23;100986.03;;;12.32;67.37
25156;BME280;21913;52.456;13.634;2023-04-16T18:08:25;100988.63;;;12.34;67.34
25156;BME280;21913;52.456;13.634;2023-04-16T18:13:26;101000.72;;;12.33;67.53
25156;BME280;21913;52.456;13.634;2023-04-16T18:18:28;101003.31;;;12.33;67.41
25156;BME280;21913;52.456;13.634;2023-04-16T18:23:29;101003.31;;;12.33;67.36
25156;BME280;21913;52.456;13.634;2023-04-16T18:28:31;101006.78;;;12.34;67.41
25156;BME280;21913;52.456;13.634;2023-04-16T18:33:32;101001.59;;;12.34;67.46
25156;BME280;21913;52.456;13.634;2023-04-16T18:38:50;101011.97;;;12.34;67.45
25156;BME280;21913;52.456;13.634;2023-04-16T18:44:00;101014.56;;;12.31;67.51
25156;BME280;21913;52.456;13.634;2023-04-16T18:49:01;101011.13;;;12.32;67.47
25156;BME280;21913;52.456;13.634;2023-04-16T18:54:03;101022.34;;;12.32;67.46
25156;BME280;21913;52.456;13.634;2023-04-16T18:59:04;101028.41;;;12.33;67.52
25156;BME280;21913;52.456;13.634;2023-04-16T19:04:06;101024.97;;;12.34;67.39
25156;BME280;21913;52.456;13.634;2023-04-16T19:09:07;101028.41;;;12.33;67.44
25156;BME280;21913;52.456;13.634;2023-04-16T19:14:10;101029.28;;;12.33;67.37
25156;BME280;21913;52.456;13.634;2023-04-16T19:19:12;101033.63;;;12.34;67.35
25156;BME280;21913;52.456;13.634;2023-04-16T19:24:13;101028.41;;;12.33;67.48
25156;BME280;21913;52.456;13.634;2023-04-16T19:29:15;101036.19;;;12.33;67.28
25156;BME280;21913;52.456;13.634;2023-04-16T19:34:16;101034.47;;;12.33;67.43
25156;BME280;21913;52.456;13.634;2023-04-16T19:39:18;101037.94;;;12.34;67.42
25156;BME280;21913;52.456;13.634;2023-04-16T19:44:19;101036.25;;;12.34;67.46
25156;BME280;21913;52.456;13.634;2023-04-16T19:49:21;101037.06;;;12.33;67.41
25156;BME280;21913;52.456;13.634;2023-04-16T19:54:22;101037.94;;;12.34;67.51
25156;BME280;21913;52.456;13.634;2023-04-16T19:59:24;101044.84;;;12.33;67.51
25156;BME280;21913;52.456;13.634;2023-04-16T20:04:25;101047.47;;;12.35;67.41
25156;BME280;21913;52.456;13.634;2023-04-16T20:09:27;101048.31;;;12.34;67.34
25156;BME280;21913;52.456;13.634;2023-04-16T20:14:28;101048.31;;;12.34;67.56
25156;BME280;21913;52.456;13.634;2023-04-16T20:19:30;101050.06;;;12.35;67.42
25156;BME280;21913;52.456;13.634;2023-04-16T20:24:31;101051.78;;;12.33;67.50
25156;BME280;21913;52.456;13.634;2023-04-16T20:29:32;101057.00;;;12.34;67.44
25156;BME280;21913;52.456;13.634;2023-04-16T20:34:34;101050.03;;;12.33;67.43
25156;BME280;21913;52.456;13.634;2023-04-16T20:39:35;101048.31;;;12.34;67.48
25156;BME280;21913;52.456;13.634;2023-04-16T20:44:37;101057.88;;;12.35;67.46
25156;BME280;21913;52.456;13.634;2023-04-16T20:49:39;101045.72;;;12.34;67.50
25156;BME280;21913;52.456;13.634;2023-04-16T20:54:41;101046.63;;;12.34;67.70
25156;BME280;21913;52.456;13.634;2023-04-16T20:59:42;101046.63;;;12.34;67.86
25156;BME280;21913;52.456;13.634;2023-04-16T21:04:44;101053.53;;;12.35;67.59
25156;BME280;21913;52.456;13.634;2023-04-16T21:09:45;101053.53;;;12.35;67.71
25156;BME280;21913;52.456;13.634;2023-04-16T21:14:47;101055.28;;;12.35;67.64
25156;BME280;21913;52.456;13.634;2023-04-16T21:19:48;101058.72;;;12.35;67.54
25156;BME280;21913;52.456;13.634;2023-04-16T21:24:50;101056.09;;;12.34;67.56
25156;BME280;21913;52.456;13.634;2023-04-16T21:29:51;101054.41;;;12.34;67.48
25156;BME280;21913;52.456;13.634;2023-04-16T21:34:53;101056.09;;;12.34;67.51
25156;BME280;21913;52.456;13.634;2023-04-16T21:39:54;101055.28;;;12.35;67.57
25156;BME280;21913;52.456;13.634;2023-04-16T21:44:56;101051.81;;;12.34;67.59
25156;BME280;21913;52.456;13.634;2023-04-16T21:49:57;101055.28;;;12.35;67.59
25156;BME280;21913;52.456;13.634;2023-04-16T21:54:59;101060.47;;;12.35;67.68
25156;BME280;21913;52.456;13.634;2023-04-16T22:00:01;101057.00;;;12.34;67.69
25156;BME280;21913;52.456;13.634;2023-04-16T22:05:04;101050.91;;;12.34;67.59
25156;BME280;21913;52.456;13.634;2023-04-16T22:10:07;101061.28;;;12.34;67.67
25156;BME280;21913;52.456;13.634;2023-04-16T22:15:09;101055.28;;;12.35;67.68
25156;BME280;21913;52.456;13.634;2023-04-16T22:20:10;101050.06;;;12.35;67.67
25156;BME280;21913;52.456;13.634;2023-04-16T22:25:12;101057.88;;;12.35;67.52
25156;BME280;21913;52.456;13.634;2023-04-16T22:30:13;101051.81;;;12.34;67.67
25156;BME280;21913;52.456;13.634;2023-04-16T22:35:15;101057.81;;;12.33;67.65
25156;BME280;21913;52.456;13.634;2023-04-16T22:40:16;101055.28;;;12.35;67.69
25156;BME280;21913;52.456;13.634;2023-04-16T22:45:18;101065.66;;;12.35;67.69
25156;BME280;21913;52.456;13.634;2023-04-16T22:50:19;101068.25;;;12.35;67.51
25156;BME280;21913;52.456;13.634;2023-04-16T22:55:21;101068.25;;;12.35;67.56
25156;BME280;21913;52.456;13.634;2023-04-16T23:00:22;101076.03;;;12.35;67.52
25156;BME280;21913;52.456;13.634;2023-04-16T23:05:24;101075.16;;;12.36;67.56
25156;BME280;21913;52.456;13.634;2023-04-16T23:10:26;101076.91;;;12.35;67.59
25156;BME280;21913;52.456;13.634;2023-04-16T23:15:28;101073.44;;;12.35;67.60
25156;BME280;21913;52.456;13.634;2023-04-16T23:20:29;101070.84;;;12.35;67.63
25156;BME280;21913;52.456;13.634;2023-04-16T23:25:31;101073.44;;;12.35;67.63
25156;BME280;21913;52.456;13.634;2023-04-16T23:30:32;101077.75;;;12.34;67.67
25156;BME280;21913;52.456;13.634;2023-04-16T23:35:34;101078.63;;;12.35;67.59
25156;BME280;21913;52.456;13.634;2023-04-16T23:40:35;101076.91;;;12.35;67.66
25156;BME280;21913;52.456;13.634;2023-04-16T23:45:37;101076.84;;;12.34;67.60
25156;BME280;21913;52.456;13.634;2023-04-16T23:50:38;101079.50;;;12.35;67.58
25156;BME280;21913;52.456;13.634;2023-04-16T23:55:39;101089.00;;;12.35;67.73
